createdAt,value
2018-03-19T06:33:41.291Z,46.60
2018-03-19T06:36:07.543Z,46.20
2018-03-19T06:38:33.886Z,46.20
2018-03-19T06:41:00.190Z,46.10
2018-03-19T06:43:26.484Z,48.50
2018-03-19T06:45:52.780Z,46.60
2018-03-19T06:48:19.329Z,46.20
2018-03-19T06:50:46.431Z,46.10
2018-03-19T06:53:12.722Z,46.10
2018-03-19T06:55:42.158Z,45.70
2018-03-19T06:58:11.703Z,45.70
2018-03-19T07:00:44.230Z,45.40
2018-03-19T07:03:10.708Z,45.10
2018-03-19T07:05:38.088Z,45.30
2018-03-19T07:08:04.707Z,45.50
2018-03-19T07:10:31.243Z,45.40
2018-03-19T07:12:59.476Z,45.20
2018-03-19T07:15:25.895Z,45.10
2018-03-19T07:17:52.211Z,45.20
2018-03-19T07:20:19.226Z,45.30
2018-03-19T07:22:47.223Z,44.90
2018-03-19T07:25:13.581Z,44.90
2018-03-19T07:27:39.942Z,45.10
2018-03-19T07:30:07.207Z,44.80
2018-03-19T07:32:33.486Z,44.80
2018-03-19T07:34:59.862Z,44.80
2018-03-19T07:37:26.182Z,45.00
2018-03-19T07:39:52.407Z,45.10
2018-03-19T07:42:18.690Z,45.00
2018-03-19T07:44:44.930Z,45.30
2018-03-19T07:47:11.205Z,44.80
2018-03-19T07:49:37.473Z,45.20
2018-03-19T07:52:03.735Z,45.20
2018-03-19T07:54:30.128Z,45.10
2018-03-19T07:56:56.407Z,45.50
2018-03-19T07:59:24.559Z,46.10
2018-03-19T08:01:50.809Z,44.70
2018-03-19T08:04:17.053Z,44.40
2018-03-19T08:06:43.363Z,44.80
2018-03-19T08:09:09.688Z,44.20
2018-03-19T08:11:35.996Z,43.90
2018-03-19T08:14:02.347Z,44.10
2018-03-19T08:16:28.628Z,43.60
2018-03-19T08:18:54.887Z,43.30
2018-03-19T08:21:21.135Z,44.20
2018-03-19T08:23:47.427Z,43.70
2018-03-19T08:26:28.618Z,43.70
2018-03-19T08:28:55.002Z,43.90
2018-03-19T08:31:22.864Z,43.20
2018-03-19T08:33:50.622Z,44.00
2018-03-19T08:36:17.604Z,44.00
2018-03-19T08:38:43.888Z,44.00
2018-03-19T08:41:10.216Z,44.20
2018-03-19T08:43:36.497Z,44.10
2018-03-19T08:46:03.455Z,43.60
2018-03-19T08:48:29.703Z,43.60
2018-03-19T08:50:55.984Z,43.50
2018-03-19T08:53:22.247Z,43.30
2018-03-19T08:55:48.527Z,43.30
2018-03-19T08:58:15.530Z,42.90
2018-03-19T09:00:41.818Z,42.90
2018-03-19T09:03:08.076Z,42.90
2018-03-19T09:05:34.347Z,43.10
2018-03-19T09:08:00.652Z,42.90
2018-03-19T09:10:26.919Z,42.90
2018-03-19T09:12:54.160Z,43.10
2018-03-19T09:15:20.431Z,43.40
2018-03-19T09:17:46.662Z,43.00
2018-03-19T09:20:12.966Z,43.30
2018-03-19T09:22:39.223Z,43.20
2018-03-19T09:25:05.522Z,42.50
2018-03-19T09:27:32.566Z,43.10
2018-03-19T09:29:58.871Z,42.10
2018-03-19T09:32:25.943Z,42.30
2018-03-19T09:34:52.175Z,42.60
2018-03-19T09:37:18.438Z,42.50
2018-03-19T09:39:44.696Z,41.90
2018-03-19T09:42:11.510Z,42.00
2018-03-19T09:44:37.753Z,41.90
2018-03-19T09:47:04.787Z,41.60
2018-03-19T09:49:31.040Z,41.60
2018-03-19T09:51:57.331Z,41.30
2018-03-19T09:54:23.581Z,41.10
2018-03-19T09:56:50.608Z,41.00
2018-03-19T09:59:16.863Z,40.90
2018-03-19T10:01:43.604Z,40.90
2018-03-19T10:04:09.851Z,41.10
2018-03-19T10:06:36.095Z,41.40
2018-03-19T10:09:02.423Z,40.90
2018-03-19T10:11:28.675Z,41.00
2018-03-19T10:13:54.931Z,40.90
2018-03-19T10:16:21.204Z,41.50
2018-03-19T10:18:48.159Z,41.60
2018-03-19T10:21:14.503Z,41.30
2018-03-19T10:23:40.794Z,40.90
2018-03-19T10:26:07.076Z,40.90
2018-03-19T10:28:33.327Z,40.80
2018-03-19T10:30:59.571Z,40.80
2018-03-19T10:33:25.865Z,41.10
2018-03-19T10:35:52.130Z,41.10
2018-03-19T10:38:18.394Z,40.30
2018-03-19T10:40:45.375Z,40.40
2018-03-19T10:43:11.677Z,40.40
2018-03-19T10:45:37.913Z,40.50
2018-03-19T10:48:04.357Z,39.50
2018-03-19T10:50:30.619Z,39.80
2018-03-19T10:52:56.910Z,41.20
2018-03-19T10:55:23.922Z,40.20
2018-03-19T10:57:50.228Z,40.10
2018-03-19T11:00:16.871Z,39.00
2018-03-19T11:02:49.005Z,39.30
2018-03-19T11:05:21.498Z,39.50
2018-03-19T11:07:54.198Z,39.40
2018-03-19T11:10:20.475Z,39.50
2018-03-19T11:12:46.723Z,39.30
2018-03-19T11:15:13.025Z,38.50
2018-03-19T11:17:39.287Z,39.10
2018-03-19T11:20:05.602Z,39.60
2018-03-19T11:22:31.799Z,39.40
2018-03-19T11:24:58.043Z,39.70
2018-03-19T11:27:24.315Z,40.70
2018-03-19T11:29:50.775Z,38.80
2018-03-19T11:32:17.054Z,38.50
2018-03-19T11:34:43.414Z,38.20
2018-03-19T11:37:09.666Z,37.60
2018-03-19T11:39:35.907Z,37.50
2018-03-19T11:42:02.209Z,38.00
2018-03-19T11:44:28.438Z,37.20
2018-03-19T11:46:54.682Z,37.90
2018-03-19T11:49:20.920Z,37.80
2018-03-19T11:51:47.488Z,37.50
2018-03-19T11:54:13.755Z,37.00
2018-03-19T11:56:40.024Z,37.10
2018-03-19T11:59:06.530Z,37.60
2018-03-19T12:01:33.525Z,36.40
2018-03-19T12:03:59.807Z,36.30
2018-03-19T12:06:26.122Z,36.70
2018-03-19T12:08:52.371Z,37.30
2018-03-19T12:11:18.965Z,36.20
2018-03-19T12:13:45.207Z,35.80
2018-03-19T12:16:11.431Z,34.70
2018-03-19T12:18:37.683Z,34.90
2018-03-19T12:21:03.930Z,35.50
2018-03-19T12:23:30.209Z,35.70
2018-03-19T12:25:56.431Z,35.60
2018-03-19T12:28:22.721Z,34.90
2018-03-19T12:30:48.966Z,34.60
2018-03-19T12:33:15.229Z,33.10
2018-03-19T12:35:41.474Z,33.30
2018-03-19T12:38:07.727Z,33.40
2018-03-19T12:40:33.971Z,34.10
2018-03-19T12:43:00.265Z,34.00
2018-03-19T12:45:26.487Z,34.20
2018-03-19T12:47:53.119Z,34.40
2018-03-19T12:50:19.422Z,34.20
2018-03-19T12:52:45.747Z,32.80
2018-03-19T12:55:12.272Z,33.90
2018-03-19T12:57:38.508Z,33.40
2018-03-19T13:00:04.827Z,33.90
2018-03-19T13:02:31.219Z,33.60
2018-03-19T13:04:57.490Z,31.30
2018-03-19T13:07:23.774Z,31.70
2018-03-19T13:09:51.233Z,30.50
2018-03-19T13:12:18.204Z,28.70
2018-03-19T13:14:45.470Z,30.00
2018-03-19T13:17:11.771Z,30.00
2018-03-19T13:19:38.017Z,31.20
2018-03-19T13:22:04.270Z,30.10
2018-03-19T13:24:30.514Z,30.50
2018-03-19T13:26:56.759Z,30.90
2018-03-19T13:29:23.063Z,30.00
2018-03-19T13:31:49.331Z,30.60
2018-03-19T13:34:15.558Z,31.80
2018-03-19T13:36:41.811Z,30.00
2018-03-19T13:39:08.042Z,30.00
2018-03-19T13:41:35.027Z,31.20
2018-03-19T13:44:01.379Z,31.10
2018-03-19T13:46:27.624Z,30.40
2018-03-19T13:48:54.215Z,30.70
2018-03-19T13:51:20.459Z,29.90
2018-03-19T13:53:47.010Z,30.60
2018-03-19T13:56:13.291Z,30.10
2018-03-19T13:58:40.268Z,28.20
2018-03-19T14:01:06.540Z,28.20
2018-03-19T14:03:32.776Z,28.20
2018-03-19T14:05:59.007Z,27.40
2018-03-19T14:08:25.252Z,27.90
2018-03-19T14:10:52.227Z,26.20
2018-03-19T14:13:19.659Z,25.50
2018-03-19T14:15:46.647Z,25.20
2018-03-19T14:18:12.911Z,25.10
2018-03-19T14:20:39.148Z,24.10
2018-03-19T14:23:05.481Z,24.20
2018-03-19T14:25:31.867Z,24.40
2018-03-19T14:27:59.064Z,23.00
2018-03-19T14:30:25.308Z,21.80
2018-03-19T14:32:51.685Z,21.90
2018-03-19T14:35:17.958Z,20.60
2018-03-19T14:37:44.200Z,19.20
2018-03-19T14:40:11.255Z,18.40
2018-03-19T14:42:37.798Z,18.30
2018-03-19T14:45:04.094Z,18.30
2018-03-19T14:47:30.349Z,18.90
2018-03-19T14:49:56.578Z,17.60
2018-03-19T14:52:22.968Z,16.70
2018-03-19T14:54:49.231Z,16.80
2018-03-19T14:57:16.256Z,17.50
2018-03-19T14:59:42.515Z,17.40
2018-03-19T15:02:08.754Z,16.80
2018-03-19T15:04:35.050Z,16.50
2018-03-19T15:07:01.271Z,15.70
2018-03-19T15:09:28.479Z,16.10
2018-03-19T15:11:54.747Z,16.50
2018-03-19T15:14:21.023Z,16.10
2018-03-19T15:16:48.159Z,16.00
2018-03-19T15:19:14.398Z,16.60
2018-03-19T15:21:43.040Z,15.70
2018-03-19T15:24:09.494Z,15.50
2018-03-19T15:26:37.358Z,15.80
2018-03-19T15:29:03.935Z,15.40
2018-03-19T15:31:30.159Z,15.80
2018-03-19T15:33:56.398Z,16.90
2018-03-19T15:36:23.654Z,16.90
2018-03-19T15:38:50.120Z,16.30
2018-03-19T15:41:16.362Z,16.90
2018-03-19T15:43:42.656Z,17.40
2018-03-19T15:49:02.819Z,16.90
2018-03-19T15:51:29.095Z,16.80
2018-03-19T15:53:55.327Z,17.70
2018-03-19T15:56:22.891Z,17.90
2018-03-19T15:58:49.191Z,17.90
2018-03-19T16:01:15.471Z,17.80
2018-03-19T16:03:41.706Z,17.20
2018-03-19T16:06:08.029Z,16.60
2018-03-19T16:08:35.887Z,16.50
2018-03-19T16:11:02.212Z,17.90
2018-03-19T16:13:31.201Z,18.00
2018-03-19T16:16:05.266Z,17.70
2018-03-19T16:18:37.352Z,18.00
2018-03-19T16:21:05.553Z,17.90
2018-03-19T16:23:32.371Z,18.90
2018-03-19T16:25:58.699Z,18.60
2018-03-19T16:28:24.973Z,18.70
2018-03-19T16:30:51.642Z,18.70
2018-03-19T16:33:17.891Z,18.40
2018-03-19T16:35:44.243Z,18.90
2018-03-19T16:38:10.475Z,18.80
2018-03-19T16:40:37.633Z,19.10
2018-03-19T16:43:04.485Z,19.50
2018-03-19T16:45:30.735Z,20.40
2018-03-19T16:47:57.091Z,21.60
2018-03-19T16:50:23.974Z,21.70
2018-03-19T16:52:50.199Z,21.70
2018-03-19T16:55:16.430Z,21.40
2018-03-19T16:57:42.706Z,21.70
2018-03-19T17:00:08.985Z,22.00
2018-03-19T17:02:39.467Z,21.80
2018-03-19T17:05:07.828Z,22.60
2018-03-19T17:07:34.402Z,23.70
2018-03-19T17:10:00.729Z,23.40
2018-03-19T17:12:27.002Z,23.80
2018-03-19T17:15:07.970Z,25.60
2018-03-19T17:17:39.747Z,25.60
2018-03-19T17:20:07.019Z,28.40
2018-03-19T17:22:34.791Z,30.00
2018-03-19T17:25:03.526Z,32.20
2018-03-19T17:27:31.376Z,33.60
2018-03-19T17:30:01.860Z,34.60
2018-03-19T17:32:28.201Z,36.30
2018-03-19T17:34:54.563Z,35.50
2018-03-19T17:37:20.840Z,35.10
2018-03-19T17:39:47.172Z,35.40
2018-03-19T17:42:14.254Z,36.20
2018-03-19T17:44:42.005Z,36.60
2018-03-19T17:47:08.314Z,36.60
2018-03-19T17:49:34.551Z,37.30
2018-03-19T17:52:02.571Z,37.30
2018-03-19T17:54:28.794Z,37.30
2018-03-19T17:56:55.084Z,37.70
2018-03-19T17:59:21.903Z,38.40
2018-03-19T18:01:48.476Z,38.70
2018-03-19T18:04:14.872Z,38.70
2018-03-19T18:06:41.196Z,38.70
2018-03-19T18:09:07.486Z,39.10
2018-03-19T18:11:33.717Z,39.40
2018-03-19T18:14:00.136Z,39.50
2018-03-19T18:16:26.475Z,39.80
2018-03-19T18:18:52.820Z,40.10
2018-03-19T18:21:19.140Z,39.90
2018-03-19T18:23:45.495Z,40.10
2018-03-19T18:26:11.759Z,39.80
2018-03-19T18:28:38.032Z,39.90
2018-03-19T18:31:04.608Z,39.20
2018-03-19T18:33:31.254Z,39.80
2018-03-19T18:35:57.610Z,40.10
2018-03-19T18:38:25.156Z,40.60
2018-03-19T18:41:00.073Z,40.50
2018-03-19T18:43:28.711Z,40.40
2018-03-19T18:45:55.435Z,40.50
2018-03-19T18:48:21.726Z,40.60
2018-03-19T18:50:47.980Z,40.40
2018-03-19T18:53:14.240Z,40.60
2018-03-19T18:55:40.546Z,40.60
2018-03-19T18:58:06.819Z,40.50
2018-03-19T19:00:33.147Z,41.20
2018-03-19T19:02:59.490Z,40.70
2018-03-19T19:05:25.888Z,40.00
2018-03-19T19:07:52.138Z,40.20
2018-03-19T19:10:18.492Z,40.20
2018-03-19T19:12:44.783Z,40.60
2018-03-19T19:15:11.534Z,40.90
2018-03-19T19:17:37.815Z,41.30
2018-03-19T19:20:04.529Z,41.20
2018-03-19T19:22:30.793Z,41.50
2018-03-19T19:24:57.107Z,41.40
2018-03-19T19:27:23.360Z,41.60
2018-03-19T19:29:49.682Z,41.80
2018-03-19T19:32:16.323Z,41.80
2018-03-19T19:34:42.619Z,42.10
2018-03-19T19:37:09.084Z,41.90
2018-03-19T19:39:35.625Z,42.30
2018-03-19T19:42:01.885Z,42.60
2018-03-19T19:44:28.131Z,43.00
2018-03-19T19:46:55.167Z,43.00
2018-03-19T19:49:21.451Z,42.80
2018-03-19T19:51:47.755Z,42.70
2018-03-19T19:54:14.234Z,42.70
2018-03-19T19:56:40.506Z,42.10
2018-03-19T19:59:06.799Z,41.90
2018-03-19T20:01:33.059Z,42.30
2018-03-19T20:04:00.101Z,42.70
2018-03-19T20:06:26.523Z,42.60
2018-03-19T20:08:52.851Z,42.00
2018-03-19T20:11:19.979Z,40.90
2018-03-19T20:13:47.116Z,40.90
2018-03-19T20:16:13.410Z,40.50
2018-03-19T20:18:39.700Z,40.30
2018-03-19T20:21:06.121Z,40.70
2018-03-19T20:23:33.118Z,41.10
2018-03-19T20:25:59.579Z,41.10
2018-03-19T20:28:25.841Z,40.90
2018-03-19T20:30:52.712Z,40.60
2018-03-19T20:33:18.967Z,40.50
2018-03-19T20:35:45.244Z,40.50
2018-03-19T20:38:12.359Z,40.80
2018-03-19T20:40:38.875Z,40.70
2018-03-19T20:43:05.179Z,40.80
2018-03-19T20:45:32.181Z,41.10
2018-03-19T20:47:58.467Z,41.10
2018-03-19T20:50:24.707Z,41.40
2018-03-19T20:52:51.011Z,41.90
2018-03-19T20:55:18.140Z,41.30
2018-03-19T20:57:44.402Z,41.20
2018-03-19T21:00:11.082Z,41.80
2018-03-19T21:02:37.340Z,41.70
2018-03-19T21:05:03.600Z,41.40
2018-03-19T21:07:29.904Z,41.30
2018-03-19T21:09:56.215Z,41.50
2018-03-19T21:12:22.495Z,41.40
2018-03-19T21:14:48.771Z,41.30
2018-03-19T21:17:15.180Z,41.10
2018-03-19T21:19:41.440Z,41.00
2018-03-19T21:22:07.887Z,41.20
2018-03-19T21:24:34.151Z,41.30
2018-03-19T21:27:00.892Z,40.70
2018-03-19T21:29:27.891Z,40.80
2018-03-19T21:31:54.928Z,41.30
2018-03-19T21:34:21.230Z,41.30
2018-03-19T21:36:48.232Z,42.30
2018-03-19T21:39:15.046Z,42.30
2018-03-19T21:41:41.329Z,42.00
2018-03-19T21:44:07.653Z,42.50
2018-03-19T21:46:33.938Z,42.80
2018-03-19T21:49:00.341Z,43.10
2018-03-19T21:51:26.798Z,41.60
2018-03-19T21:53:53.063Z,41.90
2018-03-19T21:56:19.355Z,42.00
2018-03-19T21:58:46.388Z,41.50
2018-03-19T22:01:12.774Z,41.50
2018-03-19T22:03:39.091Z,41.10
2018-03-19T22:06:05.393Z,41.10
2018-03-19T22:08:31.679Z,41.10
2018-03-19T22:10:58.036Z,40.50
2018-03-19T22:13:26.876Z,40.60
2018-03-19T22:15:53.843Z,40.20
2018-03-19T22:18:20.112Z,40.20
2018-03-19T22:20:46.350Z,39.50
2018-03-19T22:23:12.651Z,40.00
2018-03-19T22:25:38.935Z,39.80
2018-03-19T22:28:05.926Z,39.70
2018-03-19T22:30:32.375Z,39.70
2018-03-19T22:32:58.656Z,40.10
2018-03-19T22:35:24.939Z,39.90
2018-03-19T22:37:51.196Z,41.00
2018-03-19T22:40:17.594Z,39.60
2018-03-19T22:42:45.716Z,39.90
2018-03-19T22:45:11.985Z,39.50
2018-03-19T22:47:38.379Z,39.50
2018-03-19T22:50:05.431Z,40.20
2018-03-19T22:52:32.791Z,40.10
2018-03-19T22:54:59.160Z,40.60
2018-03-19T22:57:26.040Z,40.40
2018-03-19T22:59:52.312Z,40.90
2018-03-19T23:02:18.554Z,41.10
2018-03-19T23:04:56.887Z,41.50
2018-03-19T23:07:23.171Z,41.80
2018-03-19T23:09:50.166Z,41.10
2018-03-19T23:12:16.423Z,41.10
2018-03-19T23:14:43.041Z,40.80
2018-03-19T23:17:09.504Z,40.80
2018-03-19T23:19:36.062Z,41.30
2018-03-19T23:22:02.761Z,41.00
2018-03-19T23:24:29.794Z,41.20
2018-03-19T23:26:56.066Z,41.20
2018-03-19T23:29:22.315Z,41.00
2018-03-19T23:31:48.772Z,41.20
2018-03-19T23:34:15.016Z,41.10
2018-03-19T23:36:41.298Z,41.40
2018-03-19T23:39:08.044Z,42.40
2018-03-19T23:41:34.295Z,43.20
2018-03-19T23:44:01.288Z,43.90
2018-03-19T23:46:27.779Z,43.80
2018-03-19T23:48:54.045Z,44.10
2018-03-19T23:51:20.902Z,45.10
2018-03-19T23:53:47.150Z,45.10
2018-03-19T23:56:13.467Z,46.00
2018-03-19T23:58:39.707Z,46.60
